Time;durP1;ratioP1;P1;durP2;ratioP2;P2;SDS_P1;SDS_P2;PMS_P1;PMS_P2;Temp;Humidity;BMP_temperature;BMP_pressure;BME280_temperature;BME280_humidity;BME280_pressure;Samples;Min_cycle;Max_cycle;Signal;HPM_P1;HPM_P2
2021/04/09 00:00:58;;;;;;;57.65;29.30;;;;;;;0.14;62.93;95155.12;1671002;84;21873;-56
2021/04/09 00:03:26;;;;;;;56.95;29.50;;;;;;;0.01;63.23;95155.95;1671114;85;21198;-57
2021/04/09 00:05:54;;;;;;;47.58;26.70;;;;;;;-0.05;63.19;95155.89;1671131;84;21507;-57
2021/04/09 00:08:22;;;;;;;49.65;26.73;;;;;;;-0.14;63.58;95158.09;1670888;84;21206;-57
2021/04/09 00:10:50;;;;;;;47.98;26.42;;;;;;;-0.09;63.67;95167.21;1670637;85;21250;-58
2021/04/09 00:13:18;;;;;;;43.83;24.45;;;;;;;-0.06;63.48;95171.91;1667767;84;21190;-57
2021/04/09 00:15:47;;;;;;;39.58;23.98;;;;;;;-0.13;63.67;95169.10;1667820;86;21180;-59
2021/04/09 00:18:16;;;;;;;42.48;25.15;;;;;;;-0.10;63.73;95172.41;1667878;86;21221;-56
2021/04/09 00:20:45;;;;;;;56.80;31.12;;;;;;;-0.08;63.73;95168.20;1653759;85;21093;-57
2021/04/09 00:23:14;;;;;;;96.32;48.30;;;;;;;0.01;63.78;95170.83;1667954;86;21398;-56
2021/04/09 00:25:42;;;;;;;65.35;33.18;;;;;;;0.03;63.79;95165.82;1653497;85;21175;-57
2021/04/09 00:28:10;;;;;;;61.77;33.50;;;;;;;-0.02;64.05;95173.48;1667956;84;21225;-56
2021/04/09 00:30:38;;;;;;;59.23;32.15;;;;;;;-0.06;64.23;95175.97;1653750;86;21154;-57
2021/04/09 00:33:07;;;;;;;56.58;32.33;;;;;;;-0.08;64.31;95180.38;1667838;84;21222;-57
2021/04/09 00:35:34;;;;;;;39.08;20.90;;;;;;;-0.07;64.37;95181.17;1667885;86;21215;-56
2021/04/09 00:38:02;;;;;;;30.00;15.58;;;;;;;-0.02;64.07;95182.39;1667857;86;21145;-57
2021/04/09 00:40:30;;;;;;;36.50;17.42;;;;;;;-0.05;63.46;95186.39;1667844;86;21198;-56
2021/04/09 00:42:59;;;;;;;37.15;19.55;;;;;;;-0.18;63.70;95186.45;1653743;86;21997;-56
2021/04/09 00:45:27;;;;;;;38.15;20.85;;;;;;;-0.17;63.99;95185.86;1678860;84;21138;-57
2021/04/09 00:47:55;;;;;;;40.60;20.15;;;;;;;-0.07;63.92;95187.34;1681446;85;21160;-56
2021/04/09 00:50:23;;;;;;;55.83;25.12;;;;;;;-0.03;63.63;95190.09;1681482;85;21132;-57
2021/04/09 00:52:52;;;;;;;59.58;26.12;;;;;;;-0.05;63.50;95187.74;1681475;85;21083;-57
2021/04/09 00:55:20;;;;;;;41.58;22.45;;;;;;;-0.05;63.51;95195.09;1681545;85;21098;-57
2021/04/09 00:57:50;;;;;;;42.17;20.65;;;;;;;-0.01;63.24;95202.87;1664233;85;21171;-56
2021/04/09 01:00:21;;;;;;;42.93;21.73;;;;;;;-0.02;63.09;95201.31;1681604;85;21204;-57
2021/04/09 01:02:48;;;;;;;41.23;19.62;;;;;;;-0.01;62.99;95202.08;1681536;85;21151;-56
2021/04/09 01:05:17;;;;;;;54.53;27.15;;;;;;;-0.01;62.86;95204.22;1681524;85;21177;-57
2021/04/09 01:07:45;;;;;;;44.08;21.62;;;;;;;0.01;62.77;95207.92;1681549;85;21998;-57
2021/04/09 01:10:20;;;;;;;44.70;22.45;;;;;;;-0.03;62.67;95206.31;1681547;85;21507;-58
2021/04/09 01:12:49;;;;;;;27.58;16.17;;;;;;;-0.11;62.75;95210.86;1696702;83;21283;-57
2021/04/09 01:15:20;;;;;;;22.15;13.90;;;;;;;-0.22;62.96;95207.82;1706362;84;21599;-57
2021/04/09 01:18:20;;;;;;;39.23;19.45;;;;;;;-0.28;63.34;95210.62;1707502;82;21155;-57
2021/04/09 01:21:20;;;;;;;28.65;16.32;;;;;;;-0.36;63.16;95206.28;1711443;82;21213;-57
2021/04/09 01:24:27;;;;;;;25.48;15.55;;;;;;;-0.45;63.38;95213.89;1691866;84;21165;-57
2021/04/09 01:27:10;;;;;;;26.75;14.90;;;;;;;-0.48;63.44;95215.39;1691599;84;22878;-57
2021/04/09 01:30:18;;;;;;;23.05;15.05;;;;;;;-0.45;63.69;95216.01;1691706;84;21209;-57
2021/04/09 01:32:46;;;;;;;23.52;12.82;;;;;;;-0.33;63.59;95219.05;1691526;84;21173;-57
2021/04/09 01:35:15;;;;;;;32.10;18.85;;;;;;;-0.31;63.06;95220.81;1691821;84;21117;-56
2021/04/09 01:37:52;;;;;;;35.83;22.80;;;;;;;-0.44;63.11;95229.73;1691881;84;21074;-56
2021/04/09 01:40:23;;;;;;;37.65;22.27;;;;;;;-0.47;63.42;95228.31;1692162;84;21407;-56
2021/04/09 01:42:58;;;;;;;29.55;18.10;;;;;;;-0.45;63.40;95228.76;1692015;84;21133;-57
2021/04/09 01:45:26;;;;;;;24.82;15.08;;;;;;;-0.45;63.67;95235.52;1707880;82;21202;-57
2021/04/09 01:47:56;;;;;;;29.85;15.93;;;;;;;-0.40;63.53;95237.30;1684268;83;21587;-56
2021/04/09 01:50:26;;;;;;;22.67;13.38;;;;;;;-0.36;63.31;95233.30;1711454;83;21078;-57
2021/04/09 01:52:54;;;;;;;22.82;14.33;;;;;;;-0.31;63.34;95231.06;1711611;83;21203;-56
2021/04/09 01:55:23;;;;;;;23.85;14.20;;;;;;;-0.24;62.98;95227.69;1711424;83;21095;-57
2021/04/09 01:57:51;;;;;;;26.02;15.38;;;;;;;-0.21;62.85;95234.47;1711672;83;21544;-58
2021/04/09 02:00:23;;;;;;;27.82;17.20;;;;;;;-0.23;62.50;95230.59;1711613;82;21158;-57
2021/04/09 02:02:52;;;;;;;30.77;17.45;;;;;;;-0.39;62.61;95239.45;1711608;83;21066;-57
2021/04/09 02:05:22;;;;;;;30.30;16.55;;;;;;;-0.43;62.82;95248.08;1711627;83;21187;-57
2021/04/09 02:07:51;;;;;;;23.07;14.75;;;;;;;-0.52;63.04;95244.85;1711446;83;21170;-57
2021/04/09 02:10:20;;;;;;;22.93;14.70;;;;;;;-0.56;63.17;95245.37;1711414;83;21150;-58
2021/04/09 02:12:49;;;;;;;22.52;15.30;;;;;;;-0.54;63.12;95251.98;1713782;82;21154;-58
2021/04/09 02:15:22;;;;;;;22.05;14.07;;;;;;;-0.60;62.91;95247.25;1716452;82;21134;-57
2021/04/09 02:17:50;;;;;;;27.67;15.43;;;;;;;-0.62;63.14;95248.95;1717134;83;21153;-56
2021/04/09 02:20:21;;;;;;;24.92;16.15;;;;;;;-0.60;63.00;95248.61;1716779;83;21174;-57
2021/04/09 02:22:51;;;;;;;28.70;17.60;;;;;;;-0.67;62.82;95252.53;1716930;83;21082;-57
2021/04/09 02:25:21;;;;;;;32.65;16.55;;;;;;;-0.82;63.09;95246.70;1717054;83;21577;-57
2021/04/09 02:27:50;;;;;;;30.12;16.27;;;;;;;-0.84;63.43;95254.39;1717120;82;21632;-55
2021/04/09 02:30:21;;;;;;;22.77;14.85;;;;;;;-0.84;63.57;95248.99;1716929;82;21554;-57
2021/04/09 02:32:51;;;;;;;33.08;18.65;;;;;;;-0.76;63.43;95256.08;1716752;83;21129;-58
2021/04/09 02:35:20;;;;;;;43.98;21.80;;;;;;;-0.71;63.34;95263.31;1716717;83;21102;-56
2021/04/09 02:37:50;;;;;;;31.12;16.55;;;;;;;-0.72;63.37;95259.61;1717014;83;21146;-58
2021/04/09 02:40:33;;;;;;;18.37;12.60;;;;;;;-0.68;63.61;95262.58;1716995;83;21159;-58
2021/04/09 02:43:02;;;;;;;18.32;13.40;;;;;;;-0.61;63.35;95265.96;1717001;83;21146;-57
2021/04/09 02:45:31;;;;;;;28.45;18.57;;;;;;;-0.62;63.17;95271.16;1714351;82;21135;-56
2021/04/09 02:48:00;;;;;;;21.33;13.32;;;;;;;-0.68;63.29;95275.29;1714133;83;21181;-57
2021/04/09 02:50:32;;;;;;;15.28;12.47;;;;;;;-0.71;63.26;95274.11;1714203;83;21187;-56
2021/04/09 02:53:09;;;;;;;27.40;15.78;;;;;;;-0.79;63.78;95277.06;1714479;83;21132;-57
2021/04/09 02:55:41;;;;;;;22.40;14.40;;;;;;;-0.81;63.85;95282.05;1713792;83;21224;-57
2021/04/09 02:58:09;;;;;;;26.20;14.50;;;;;;;-0.93;64.02;95281.64;1714207;83;21147;-56
2021/04/09 03:00:37;;;;;;;28.73;16.67;;;;;;;-0.94;64.31;95276.63;1714272;83;21207;-57
2021/04/09 03:03:05;;;;;;;34.83;22.00;;;;;;;-0.97;64.00;95278.70;1686201;83;21084;-57
2021/04/09 03:05:33;;;;;;;34.48;19.12;;;;;;;-1.05;63.76;95283.75;1714399;83;21528;-57
2021/04/09 03:08:02;;;;;;;30.52;17.92;;;;;;;-1.09;64.25;95288.32;1714259;83;21465;-57
2021/04/09 03:10:30;;;;;;;30.05;17.45;;;;;;;-1.00;64.04;95288.29;1663378;83;21417;-57
2021/04/09 03:12:58;;;;;;;32.00;18.42;;;;;;;-0.99;63.70;95298.53;1711150;83;21552;-58
2021/04/09 03:15:34;;;;;;;28.47;18.20;;;;;;;-1.01;63.66;95296.73;1721501;82;21611;-56
2021/04/09 03:18:11;;;;;;;39.50;19.87;;;;;;;-1.02;63.79;95298.67;1741218;82;21105;-57
2021/04/09 03:20:40;;;;;;;42.27;20.80;;;;;;;-0.98;63.69;95305.48;1741337;82;22099;-59
2021/04/09 03:23:08;;;;;;;42.60;20.45;;;;;;;-0.95;63.59;95300.13;1741237;82;21645;-57
2021/04/09 03:25:36;;;;;;;34.63;20.12;;;;;;;-0.88;63.53;95302.97;1741250;81;21636;-57
2021/04/09 03:28:06;;;;;;;27.67;17.40;;;;;;;-0.80;63.32;95303.28;1741024;82;21072;-57
2021/04/09 03:30:34;;;;;;;23.60;14.43;;;;;;;-0.76;63.00;95306.05;1741212;82;21469;-59
2021/04/09 03:33:02;;;;;;;23.98;15.75;;;;;;;-0.80;62.70;95307.91;1740889;81;21204;-58
2021/04/09 03:35:32;;;;;;;22.15;13.88;;;;;;;-0.85;62.86;95309.55;1741089;81;21144;-57
2021/04/09 03:38:00;;;;;;;19.65;13.22;;;;;;;-0.81;63.17;95313.11;1741213;82;21153;-57
2021/04/09 03:40:29;;;;;;;25.30;15.13;;;;;;;-0.76;62.62;95318.96;1741117;81;21123;-57
2021/04/09 03:42:57;;;;;;;33.80;20.37;;;;;;;-0.82;62.46;95314.22;1741276;82;21167;-57
2021/04/09 03:45:26;;;;;;;29.02;17.77;;;;;;;-0.97;62.64;95315.15;1717062;82;21203;-57
2021/04/09 03:47:56;;;;;;;91.57;26.75;;;;;;;-1.04;63.16;95316.36;1711504;83;21102;-59
2021/04/09 03:50:25;;;;;;;22.85;15.25;;;;;;;-1.04;63.16;95318.50;1711627;83;21086;-58
2021/04/09 03:52:53;;;;;;;23.00;15.68;;;;;;;-1.27;63.10;95328.50;1711645;83;21106;-57
2021/04/09 03:55:21;;;;;;;36.98;19.07;;;;;;;-1.53;63.68;95324.33;1711658;82;21095;-57
2021/04/09 03:57:51;;;;;;;35.35;20.12;;;;;;;-1.65;64.02;95334.50;1711674;83;22080;-57
2021/04/09 04:00:21;;;;;;;31.87;17.42;;;;;;;-1.78;64.32;95330.95;1711357;83;21139;-58
2021/04/09 04:02:50;;;;;;;23.22;15.35;;;;;;;-1.86;64.79;95332.72;1711751;82;21579;-56
2021/04/09 04:05:19;;;;;;;35.95;18.45;;;;;;;-1.82;64.90;95339.52;1711581;83;21143;-56
2021/04/09 04:07:47;;;;;;;56.40;22.05;;;;;;;-1.78;65.10;95333.06;1711685;83;21186;-57
2021/04/09 04:10:15;;;;;;;33.33;18.95;;;;;;;-1.66;65.30;95339.67;1711684;83;22146;-57
2021/04/09 04:12:43;;;;;;;44.88;24.35;;;;;;;-1.54;65.31;95347.63;1711966;83;22691;-58
2021/04/09 04:15:12;;;;;;;44.00;27.93;;;;;;;-1.39;65.05;95341.34;1717044;83;21254;-58
2021/04/09 04:17:40;;;;;;;49.18;31.17;;;;;;;-1.22;64.71;95344.95;1717066;83;21158;-57
2021/04/09 04:20:09;;;;;;;47.27;30.27;;;;;;;-1.13;64.36;95348.98;1717019;83;21162;-57
2021/04/09 04:22:37;;;;;;;54.85;33.30;;;;;;;-1.03;64.09;95351.11;1716687;83;21261;-57
2021/04/09 04:25:07;;;;;;;42.55;27.22;;;;;;;-0.95;64.23;95342.56;1716621;82;21142;-58
2021/04/09 04:27:35;;;;;;;38.45;25.17;;;;;;;-0.83;63.71;95351.82;1716966;83;21253;-58
2021/04/09 04:30:05;;;;;;;44.93;29.12;;;;;;;-0.82;63.50;95350.67;1716847;83;21122;-57
2021/04/09 04:32:33;;;;;;;42.43;27.90;;;;;;;-0.77;63.56;95355.80;1716868;83;21095;-59
2021/04/09 04:35:01;;;;;;;39.88;24.32;;;;;;;-0.66;63.34;95360.23;1716996;82;21213;-58
2021/04/09 04:37:28;;;;;;;37.60;21.52;;;;;;;-0.61;62.72;95358.58;1711893;82;21201;-58
2021/04/09 04:39:57;;;;;;;39.98;24.50;;;;;;;-0.70;62.80;95358.61;1682322;85;21217;-57
2021/04/09 04:42:25;;;;;;;93.95;59.45;;;;;;;-0.66;62.93;95363.49;1697096;84;21231;-57
2021/04/09 04:44:54;;;;;;;69.40;45.23;;;;;;;-0.53;62.95;95365.67;1696266;82;21168;-56
2021/04/09 04:47:22;;;;;;;76.82;47.15;;;;;;;-0.39;62.66;95367.22;1713949;83;22112;-57
2021/04/09 04:49:50;;;;;;;80.72;45.88;;;;;;;-0.24;62.71;95369.01;1713789;83;21240;-57
2021/04/09 04:52:19;;;;;;;73.15;37.03;;;;;;;-0.07;62.29;95379.90;1713666;83;21122;-56
2021/04/09 04:54:47;;;;;;;55.80;32.17;;;;;;;-0.01;62.11;95381.34;1713976;83;21163;-58
2021/04/09 04:57:15;;;;;;;55.48;33.55;;;;;;;-0.08;62.05;95379.69;1714174;83;21532;-59
2021/04/09 04:59:43;;;;;;;52.83;29.95;;;;;;;-0.27;62.41;95381.11;1714124;83;21391;-57
2021/04/09 05:02:11;;;;;;;52.03;29.12;;;;;;;-0.37;62.68;95382.50;1713952;83;21099;-58
2021/04/09 05:04:39;;;;;;;57.95;31.85;;;;;;;-0.48;62.96;95378.87;1714165;83;21128;-59
2021/04/09 05:07:08;;;;;;;56.20;29.82;;;;;;;-0.53;63.21;95379.73;1714142;83;21595;-60
2021/04/09 05:09:36;;;;;;;61.37;32.40;;;;;;;-0.61;63.49;95379.42;1714155;83;21584;-60
2021/04/09 05:12:06;;;;;;;35.92;23.38;;;;;;;-0.67;63.62;95391.65;1714115;83;21355;-57
2021/04/09 05:14:34;;;;;;;38.73;21.33;;;;;;;-0.72;63.65;95397.36;1714066;82;21504;-58
2021/04/09 05:17:02;;;;;;;31.15;18.55;;;;;;;-0.74;63.51;95393.66;1714147;83;21080;-57
2021/04/09 05:19:31;;;;;;;27.73;16.50;;;;;;;-0.79;63.49;95396.66;1729286;82;21195;-57
2021/04/09 05:21:58;;;;;;;44.40;18.25;;;;;;;-0.77;63.44;95399.78;1741212;81;21508;-57
2021/04/09 05:24:26;;;;;;;22.55;14.33;;;;;;;-0.72;63.36;95404.11;1741101;81;21209;-57
2021/04/09 05:26:54;;;;;;;28.17;16.73;;;;;;;-0.67;62.90;95402.45;1741014;82;21096;-56
2021/04/09 05:29:22;;;;;;;53.92;26.50;;;;;;;-0.61;62.70;95405.09;1741063;82;21077;-56
2021/04/09 05:31:50;;;;;;;35.70;20.40;;;;;;;-0.53;62.48;95399.45;1740937;81;21172;-56
2021/04/09 05:34:18;;;;;;;33.53;20.08;;;;;;;-0.47;62.42;95396.64;1738275;81;21266;-58
2021/04/09 05:36:47;;;;;;;31.20;21.15;;;;;;;-0.41;62.31;95403.30;1712315;82;21395;-57
2021/04/09 05:39:15;;;;;;;33.73;20.05;;;;;;;-0.34;62.09;95399.93;1736041;81;21495;-57
2021/04/09 05:41:43;;;;;;;117.05;51.45;;;;;;;-0.32;62.03;95398.99;1709692;82;21179;-58
2021/04/09 05:44:11;;;;;;;49.55;21.85;;;;;;;-0.27;62.15;95401.38;1713773;82;22377;-58
2021/04/09 05:46:38;;;;;;;28.60;18.67;;;;;;;-0.15;62.19;95403.90;1725954;82;21219;-55
2021/04/09 05:49:06;;;;;;;30.57;18.57;;;;;;;-0.01;61.88;95406.23;1708911;82;21649;-58
2021/04/09 05:51:37;;;;;;;26.42;16.00;;;;;;;0.10;61.53;95399.08;1701477;82;21147;-58
2021/04/09 05:54:07;;;;;;;31.70;19.55;;;;;;;0.21;61.51;95402.13;1701856;82;21179;-60
2021/04/09 05:56:34;;;;;;;31.97;18.42;;;;;;;0.35;61.08;95396.13;1706618;82;21206;-60
2021/04/09 05:59:02;;;;;;;30.88;17.02;;;;;;;0.61;60.51;95403.63;1721827;82;21679;-61
2021/04/09 06:01:30;;;;;;;38.00;20.27;;;;;;;0.88;59.95;95394.87;1708018;82;22281;-60
2021/04/09 06:03:58;;;;;;;39.53;17.98;;;;;;;1.21;59.32;95398.36;1703325;82;21165;-57
2021/04/09 06:06:26;;;;;;;43.40;16.90;;;;;;;1.35;58.62;95397.71;1703787;82;21637;-55
2021/04/09 06:08:53;;;;;;;16.35;10.75;;;;;;;1.44;58.25;95394.11;1705298;82;21658;-60
2021/04/09 06:11:21;;;;;;;24.87;12.23;;;;;;;1.50;57.37;95397.46;1704917;82;21187;-59
2021/04/09 06:13:52;;;;;;;21.97;12.98;;;;;;;1.48;57.18;95407.14;1711189;81;22262;-58
2021/04/09 06:16:20;;;;;;;21.82;13.43;;;;;;;1.52;57.08;95403.88;1722505;81;21646;-59
2021/04/09 06:18:48;;;;;;;20.48;13.68;;;;;;;1.53;56.88;95402.73;1691058;82;22198;-58
2021/04/09 06:21:16;;;;;;;19.35;13.13;;;;;;;1.65;57.01;95399.75;1673247;83;21214;-56
2021/04/09 06:23:44;;;;;;;21.82;13.32;;;;;;;1.84;56.67;95401.08;1696785;83;21175;-57
2021/04/09 06:26:12;;;;;;;21.20;12.90;;;;;;;2.09;56.04;95398.52;1686335;83;22129;-58
2021/04/09 06:28:40;;;;;;;16.95;13.48;;;;;;;2.21;55.65;95402.30;1685275;83;21229;-56
2021/04/09 06:31:08;;;;;;;20.68;12.43;;;;;;;2.40;55.21;95400.67;1688497;83;21637;-58
2021/04/09 06:33:38;;;;;;;13.13;10.18;;;;;;;2.70;54.73;95409.39;1659595;84;21242;-60
2021/04/09 06:36:09;;;;;;;19.65;10.55;;;;;;;2.86;53.88;95398.98;1650238;84;21213;-60
2021/04/09 06:38:37;;;;;;;14.07;9.58;;;;;;;2.84;53.56;95400.72;1682769;83;22854;-57
2021/04/09 06:41:05;;;;;;;15.32;9.15;;;;;;;2.96;53.49;95401.75;1654469;86;21196;-58
2021/04/09 06:43:33;;;;;;;18.17;10.23;;;;;;;3.10;53.12;95405.09;1657070;84;21246;-62
2021/04/09 06:46:02;;;;;;;12.95;10.03;;;;;;;3.23;53.02;95408.42;1668250;84;22357;-60
2021/04/09 06:48:30;;;;;;;27.80;10.55;;;;;;;3.35;53.01;95408.08;1662700;84;21544;-62
2021/04/09 06:51:00;;;;;;;29.80;10.75;;;;;;;3.58;52.77;95403.86;1663902;85;22691;-58
2021/04/09 06:53:31;;;;;;;26.05;10.45;;;;;;;3.75;51.57;95403.67;1657036;84;21966;-56
2021/04/09 06:56:00;;;;;;;20.75;10.98;;;;;;;3.73;51.09;95395.89;1663916;84;21218;-58
2021/04/09 06:58:28;;;;;;;22.42;13.10;;;;;;;3.75;51.28;95407.19;1660205;86;21662;-58
2021/04/09 07:00:58;;;;;;;17.07;11.20;;;;;;;3.81;50.86;95397.47;1661714;84;21187;-58
2021/04/09 07:03:26;;;;;;;13.68;10.48;;;;;;;3.97;50.60;95392.42;1642259;86;21968;-57
2021/04/09 07:05:55;;;;;;;18.70;11.03;;;;;;;4.19;50.36;95391.81;1665519;84;22407;-57
2021/04/09 07:08:26;;;;;;;30.55;13.48;;;;;;;4.28;50.23;95392.96;1700663;84;21213;-58
2021/04/09 07:10:56;;;;;;;14.90;10.25;;;;;;;4.39;50.03;95387.53;1702591;84;21647;-57
2021/04/09 07:13:25;;;;;;;16.57;10.48;;;;;;;4.50;49.70;95395.88;1697319;84;21576;-59
2021/04/09 07:15:54;;;;;;;25.15;14.23;;;;;;;4.49;49.78;95392.95;1699555;82;21184;-58
2021/04/09 07:18:27;;;;;;;22.17;11.88;;;;;;;4.52;49.44;95389.44;1684828;84;21164;-58
2021/04/09 07:20:54;;;;;;;16.93;12.60;;;;;;;4.60;48.82;95388.84;1678625;83;21147;-58
2021/04/09 07:23:22;;;;;;;18.80;11.97;;;;;;;4.59;49.01;95384.56;1684928;82;21217;-58
2021/04/09 07:25:52;;;;;;;17.80;10.85;;;;;;;4.72;48.41;95380.23;1694099;82;21297;-56
2021/04/09 07:28:22;;;;;;;27.80;11.20;;;;;;;4.92;47.50;95376.66;1696817;84;21745;-57
2021/04/09 07:30:54;;;;;;;30.55;11.57;;;;;;;5.07;47.37;95380.89;1697198;82;21044;-58
2021/04/09 07:33:26;;;;;;;16.93;10.78;;;;;;;5.18;47.06;95372.05;1704469;81;21123;-58
2021/04/09 07:35:59;;;;;;;15.20;8.65;;;;;;;5.27;46.65;95369.69;1701139;83;21206;-58
2021/04/09 07:38:29;;;;;;;;;;;;;;;5.31;46.30;95371.80;1697817;82;21179;-59
2021/04/09 07:41:00;;;;;;;9.95;6.20;;;;;;;5.39;45.30;95371.97;1689466;83;21264;-61
2021/04/09 07:43:31;;;;;;;12.58;6.65;;;;;;;5.44;44.48;95375.03;1695711;84;21231;-58
2021/04/09 07:46:01;;;;;;;9.28;5.97;;;;;;;5.56;43.96;95375.15;1702928;82;21144;-57
2021/04/09 07:48:34;;;;;;;13.70;5.83;;;;;;;5.65;43.52;95371.41;1699350;82;21195;-58
2021/04/09 07:51:05;;;;;;;10.68;7.75;;;;;;;5.69;44.05;95366.69;1695470;82;21745;-57
2021/04/09 07:53:37;;;;;;;23.42;9.18;;;;;;;5.75;43.74;95369.20;1693439;83;21378;-59
2021/04/09 07:56:18;;;;;;;20.57;8.40;;;;;;;5.86;44.14;95368.55;1701232;82;21128;-62
2021/04/09 07:58:56;;;;;;;13.85;8.43;;;;;;;6.05;44.23;95366.64;1699750;82;21191;-60
2021/04/09 08:01:26;;;;;;;14.75;8.58;;;;;;;6.23;43.99;95367.27;1695227;82;21155;-58
2021/04/09 08:03:55;;;;;;;11.78;8.13;;;;;;;6.41;44.72;95361.05;1706658;82;21116;-60
2021/04/09 08:06:24;;;;;;;15.03;7.95;;;;;;;6.62;45.11;95362.20;1700174;82;21234;-63
2021/04/09 08:08:57;;;;;;;8.55;7.20;;;;;;;6.80;45.02;95364.15;1694999;82;21219;-62
2021/04/09 08:11:35;;;;;;;11.75;7.03;;;;;;;7.02;44.61;95368.19;1695186;82;21236;-59
2021/04/09 08:14:11;;;;;;;13.08;7.35;;;;;;;7.18;43.87;95360.35;1705966;82;21145;-60
2021/04/09 08:16:46;;;;;;;8.18;7.00;;;;;;;7.32;43.49;95359.42;1709600;82;21159;-60
2021/04/09 08:19:21;;;;;;;15.83;10.85;;;;;;;7.42;43.79;95356.53;1707854;82;21204;-60
2021/04/09 08:21:53;;;;;;;15.60;11.78;;;;;;;7.52;41.95;95357.58;1705864;83;21239;-61
2021/04/09 08:24:31;;;;;;;48.68;37.78;;;;;;;7.55;41.99;95355.38;1706159;82;21168;-62
2021/04/09 08:26:59;;;;;;;19.17;16.75;;;;;;;7.49;42.05;95351.56;1701540;82;21212;-59
2021/04/09 08:29:30;;;;;;;24.52;10.48;;;;;;;7.55;43.10;95349.30;1700912;82;22297;-60
2021/04/09 08:32:02;;;;;;;12.07;8.90;;;;;;;7.69;41.94;95347.73;1704708;83;21196;-58
2021/04/09 08:34:29;;;;;;;19.77;7.62;;;;;;;7.70;41.18;95343.80;1695626;83;21170;-58
2021/04/09 08:36:58;;;;;;;9.53;6.05;;;;;;;7.71;40.62;95345.34;1703915;82;21202;-59
2021/04/09 08:39:28;;;;;;;8.10;7.25;;;;;;;7.67;40.59;95343.26;1694486;82;21590;-59
2021/04/09 08:41:57;;;;;;;15.78;7.92;;;;;;;7.62;40.61;95331.99;1697795;82;21141;-57
2021/04/09 08:44:25;;;;;;;9.03;7.17;;;;;;;7.66;40.84;95330.76;1705125;82;21246;-58
2021/04/09 08:46:56;;;;;;;7.92;5.60;;;;;;;7.82;41.41;95336.39;1693432;82;21443;-57
2021/04/09 08:49:25;;;;;;;10.27;6.40;;;;;;;7.87;39.88;95327.69;1710224;82;21567;-58
2021/04/09 08:51:53;;;;;;;6.55;5.28;;;;;;;7.91;39.68;95327.03;1686440;83;21631;-60
2021/04/09 08:54:29;;;;;;;8.30;6.25;;;;;;;8.02;39.76;95329.02;1706981;83;21162;-59
2021/04/09 08:57:02;;;;;;;19.87;8.90;;;;;;;8.18;40.53;95326.44;1707511;82;21199;-59
2021/04/09 08:59:40;;;;;;;9.88;6.42;;;;;;;8.34;40.57;95319.70;1694614;82;21202;-57
2021/04/09 09:02:25;;;;;;;10.93;6.33;;;;;;;8.47;39.02;95315.74;1704238;82;21373;-59
2021/04/09 09:05:07;;;;;;;8.43;5.87;;;;;;;8.46;38.51;95312.21;1704862;82;21185;-59
2021/04/09 09:07:54;;;;;;;15.13;6.33;;;;;;;8.48;37.81;95314.55;1707654;82;21169;-58
2021/04/09 09:10:30;;;;;;;7.05;5.37;;;;;;;8.44;37.97;95306.37;1697795;82;21232;-60
2021/04/09 09:13:14;;;;;;;6.22;5.62;;;;;;;8.59;37.04;95308.28;1700238;83;21226;-59
2021/04/09 09:15:51;;;;;;;5.60;5.10;;;;;;;8.71;37.82;95312.55;1708064;81;21222;-61
2021/04/09 09:18:28;;;;;;;8.18;5.67;;;;;;;8.86;37.99;95304.22;1713279;82;22490;-60
2021/04/09 09:21:20;;;;;;;9.00;7.72;;;;;;;9.04;38.07;95304.02;1703109;83;21195;-58
2021/04/09 09:24:00;;;;;;;8.90;6.15;;;;;;;9.17;37.75;95302.77;1714829;83;21242;-62
2021/04/09 09:26:37;;;;;;;8.48;5.78;;;;;;;9.19;38.60;95300.38;1707287;83;21234;-60
2021/04/09 09:29:26;;;;;;;7.20;5.78;;;;;;;9.30;36.64;95294.06;1712018;83;21190;-60
2021/04/09 09:32:00;;;;;;;31.42;7.33;;;;;;;9.42;37.09;95297.53;1714205;83;21226;-57
2021/04/09 09:34:35;;;;;;;11.22;7.20;;;;;;;9.54;37.48;95299.60;1712986;83;21517;-60
2021/04/09 09:37:27;;;;;;;7.85;5.30;;;;;;;9.70;36.07;95292.76;1710414;82;21421;-61
2021/04/09 09:40:02;;;;;;;14.00;6.25;;;;;;;9.87;35.89;95297.07;1707455;82;21767;-63
2021/04/09 09:42:40;;;;;;;8.70;5.65;;;;;;;10.01;35.55;95292.61;1711860;83;21189;-61
2021/04/09 09:45:13;;;;;;;8.35;5.70;;;;;;;10.24;35.26;95295.20;1715677;83;21239;-59
2021/04/09 09:47:45;;;;;;;10.20;4.87;;;;;;;10.46;33.72;95284.59;1706500;83;21266;-59
2021/04/09 09:50:23;;;;;;;9.35;5.53;;;;;;;10.55;32.95;95286.11;1710687;82;22332;-59
2021/04/09 09:53:05;;;;;;;5.75;5.17;;;;;;;10.68;33.59;95288.95;1721714;82;21249;-58
2021/04/09 09:55:44;;;;;;;8.40;6.40;;;;;;;10.86;32.96;95286.65;1713677;81;21154;-59
2021/04/09 09:58:34;;;;;;;12.50;4.85;;;;;;;11.14;34.23;95289.95;1714695;82;21229;-59
2021/04/09 10:01:03;;;;;;;6.08;5.28;;;;;;;11.37;31.78;95291.05;1711627;82;21182;-58
2021/04/09 10:03:36;;;;;;;24.10;4.42;;;;;;;11.52;31.39;95288.66;1705123;83;23299;-61
2021/04/09 10:06:13;;;;;;;12.82;5.42;;;;;;;11.72;31.60;95278.22;1710829;81;21132;-59
2021/04/09 10:08:45;;;;;;;7.25;4.20;;;;;;;11.85;30.56;95278.38;1719242;82;32649;-60
2021/04/09 10:11:18;;;;;;;12.70;7.30;;;;;;;11.89;30.78;95273.52;1709823;82;22277;-59
2021/04/09 10:13:48;;;;;;;29.00;7.20;;;;;;;11.93;31.76;95270.65;1710597;83;21170;-61
2021/04/09 10:16:24;;;;;;;9.50;5.37;;;;;;;12.24;30.65;95279.26;1710369;82;22294;-59
2021/04/09 10:18:57;;;;;;;6.10;4.70;;;;;;;12.42;29.62;95271.16;1716553;83;21246;-58
2021/04/09 10:21:32;;;;;;;11.38;9.53;;;;;;;12.67;29.40;95268.30;1704098;83;21228;-63
2021/04/09 10:24:12;;;;;;;9.48;5.40;;;;;;;13.06;28.06;95270.50;1704484;82;21180;-61
2021/04/09 10:26:43;;;;;;;8.28;4.08;;;;;;;13.42;28.07;95263.81;1721785;82;21129;-64
2021/04/09 10:29:25;;;;;;;5.92;4.05;;;;;;;13.55;28.03;95258.95;1716447;83;22159;-64
2021/04/09 10:31:56;;;;;;;10.08;5.50;;;;;;;13.32;27.24;95258.85;1703817;83;21239;-68
2021/04/09 10:34:35;;;;;;;61.95;8.38;;;;;;;12.83;27.33;95255.11;1708342;82;21155;-61
2021/04/09 10:37:06;;;;;;;44.05;6.78;;;;;;;12.71;27.98;95259.31;1707557;83;21228;-60
2021/04/09 10:39:38;;;;;;;11.70;3.98;;;;;;;12.79;28.40;95261.97;1709217;82;21198;-60
2021/04/09 10:42:07;;;;;;;10.55;3.60;;;;;;;13.15;27.98;95260.28;1708154;82;21370;-64
2021/04/09 10:44:35;;;;;;;8.83;4.28;;;;;;;13.66;26.82;95278.67;1680228;83;21167;-64
2021/04/09 10:47:05;;;;;;;23.30;5.45;;;;;;;14.02;25.57;95261.59;1711104;82;21221;-60
2021/04/09 10:49:37;;;;;;;8.60;3.52;;;;;;;14.24;25.63;95269.84;1708475;83;21123;-59
2021/04/09 10:52:09;;;;;;;25.93;5.33;;;;;;;14.25;25.00;95266.63;1705982;82;21481;-60
2021/04/09 10:54:41;;;;;;;10.20;3.40;;;;;;;14.42;25.50;95267.11;1706101;83;22347;-63
2021/04/09 10:57:12;;;;;;;19.52;3.67;;;;;;;14.68;24.69;95269.94;1707586;83;21012;-66
2021/04/09 10:59:43;;;;;;;10.43;4.50;;;;;;;14.87;23.46;95266.54;1677118;83;21135;-60
2021/04/09 11:02:21;;;;;;;11.53;3.25;;;;;;;14.84;23.69;95270.99;1706715;82;21183;-60
2021/04/09 11:04:56;;;;;;;7.37;2.90;;;;;;;14.98;22.94;95271.77;1711511;82;21593;-59
2021/04/09 11:07:46;;;;;;;6.92;3.35;;;;;;;15.15;22.28;95272.23;1709980;82;21183;-59
2021/04/09 11:10:32;;;;;;;6.95;3.95;;;;;;;15.15;22.57;95269.47;1707509;82;21189;-61
2021/04/09 11:13:00;;;;;;;11.55;3.42;;;;;;;15.36;22.94;95269.29;1715165;82;21624;-63
2021/04/09 11:15:44;;;;;;;8.25;4.40;;;;;;;15.74;22.62;95263.95;1719393;81;21273;-61
2021/04/09 11:18:15;;;;;;;;;;;;;;;16.00;22.44;95275.41;1707870;82;21679;-61
2021/04/09 11:20:44;;;;;;;32.60;4.95;;;;;;;16.24;21.19;95268.67;1702863;83;21164;-62
2021/04/09 11:23:14;;;;;;;5.22;2.65;;;;;;;16.39;20.38;95265.38;1702191;84;21191;-65
2021/04/09 11:25:47;;;;;;;11.23;3.93;;;;;;;16.53;19.75;95258.50;1700785;82;21186;-60
2021/04/09 11:28:30;;;;;;;9.73;6.47;;;;;;;16.65;20.33;95250.55;1700116;82;22330;-62
2021/04/09 11:31:04;;;;;;;30.35;4.55;;;;;;;16.94;20.64;95258.95;1702614;83;21650;-59
2021/04/09 11:33:40;;;;;;;8.38;4.17;;;;;;;17.44;20.21;95247.44;1868050;75;23386;-60
2021/04/09 11:36:19;;;;;;;8.75;3.37;;;;;;;17.38;19.85;95247.94;1787669;78;21565;-61
2021/04/09 11:39:15;;;;;;;3.20;2.50;;;;;;;17.32;19.93;95254.00;1790868;78;21326;-61
2021/04/09 11:41:58;;;;;;;18.87;3.60;;;;;;;17.53;19.05;95252.28;1800784;78;21849;-64
2021/04/09 11:44:37;;;;;;;10.85;3.12;;;;;;;17.94;19.64;95236.48;1786128;78;21018;-61